createdAt,value
2022-09-13T00:02:06.957Z,100331.03
2022-09-13T00:04:33.955Z,100339.00
2022-09-13T00:07:05.529Z,100331.88
2022-09-13T00:09:32.306Z,100318.63
2022-09-13T00:11:59.320Z,100320.09
2022-09-13T00:14:26.850Z,100317.38
2022-09-13T00:16:54.707Z,100325.75
2022-09-13T00:19:21.510Z,100324.09
2022-09-13T00:21:48.759Z,100314.00
2022-09-13T00:24:15.960Z,100323.88
2022-09-13T00:26:42.708Z,100318.63
2022-09-13T00:29:09.580Z,100327.63
2022-09-13T00:31:36.453Z,100315.47
2022-09-13T00:34:03.359Z,100320.22
2022-09-13T00:36:30.172Z,100315.84
2022-09-13T00:38:57.196Z,100320.00
2022-09-13T00:41:24.062Z,100320.84
2022-09-13T00:43:53.463Z,100310.56
2022-09-13T00:46:31.097Z,100324.63
2022-09-13T00:49:24.462Z,100324.19
2022-09-13T00:51:59.171Z,100323.97
2022-09-13T00:54:32.019Z,100318.31
2022-09-13T00:57:02.682Z,100316.16
2022-09-13T00:59:59.898Z,100328.97
2022-09-13T01:02:28.922Z,100327.47
2022-09-13T01:04:56.431Z,100327.91
2022-09-13T01:07:23.226Z,100319.09
2022-09-13T01:09:52.466Z,100324.31
2022-09-13T01:12:40.507Z,100321.16
2022-09-13T01:15:08.217Z,100317.78
2022-09-13T01:17:36.380Z,100307.31
2022-09-13T01:20:05.249Z,100311.50
2022-09-13T01:23:09.522Z,100305.00
2022-09-13T01:26:17.821Z,100315.44
2022-09-13T01:29:09.926Z,100303.28
2022-09-13T01:31:49.005Z,100312.28
2022-09-13T01:35:04.055Z,100314.97
2022-09-13T01:38:03.276Z,100319.78
2022-09-13T01:41:06.226Z,100316.16
2022-09-13T01:43:43.293Z,100308.22
2022-09-13T01:46:28.839Z,100307.16
2022-09-13T01:49:13.343Z,100307.78
2022-09-13T01:51:50.230Z,100317.59
2022-09-13T01:54:35.232Z,100318.81
2022-09-13T01:57:32.030Z,100307.72
2022-09-13T02:00:13.578Z,100311.69
2022-09-13T02:02:42.650Z,100309.56
2022-09-13T02:05:20.542Z,100313.94
2022-09-13T02:07:58.394Z,100316.00
2022-09-13T02:10:36.475Z,100311.19
2022-09-13T02:13:11.404Z,100312.84
2022-09-13T02:15:50.227Z,100308.66
2022-09-13T02:18:33.705Z,100307.75
2022-09-13T02:21:12.604Z,100312.19
2022-09-13T02:23:49.321Z,100312.53
2022-09-13T02:26:16.974Z,100302.44
2022-09-13T02:28:55.239Z,100295.94
2022-09-13T02:31:33.888Z,100294.44
2022-09-13T02:34:07.948Z,100290.84
2022-09-13T02:36:40.827Z,100299.03
2022-09-13T02:39:17.521Z,100301.28
2022-09-13T02:41:53.956Z,100289.13
2022-09-13T02:44:34.384Z,100291.22
2022-09-13T02:47:22.808Z,100289.94
2022-09-13T02:50:19.720Z,100300.09
2022-09-13T02:53:28.658Z,100301.50
2022-09-13T02:56:19.141Z,100297.72
2022-09-13T02:58:50.783Z,100306.06
2022-09-13T03:01:17.731Z,100287.91
2022-09-13T03:03:45.176Z,100299.16
2022-09-13T03:06:11.994Z,100287.00
2022-09-13T03:08:38.965Z,100300.53
2022-09-13T03:11:18.763Z,100291.72
2022-09-13T03:14:04.098Z,100299.41
2022-09-13T03:16:42.853Z,100298.50
2022-09-13T03:19:26.605Z,100296.00
2022-09-13T03:21:59.527Z,100296.56
2022-09-13T03:24:51.490Z,100301.09
2022-09-13T03:27:37.716Z,100305.88
2022-09-13T03:30:15.516Z,100305.19
2022-09-13T03:32:47.014Z,100308.56
2022-09-13T03:35:48.994Z,100307.03
2022-09-13T03:38:32.159Z,100302.19
2022-09-13T03:41:18.938Z,100305.50
2022-09-13T03:43:58.890Z,100304.63
2022-09-13T03:46:49.004Z,100315.44
2022-09-13T03:49:18.690Z,100313.38
2022-09-13T03:51:49.296Z,100313.28
2022-09-13T03:54:30.197Z,100317.81
2022-09-13T03:57:26.318Z,100315.00
2022-09-13T03:59:58.871Z,100314.00
2022-09-13T04:02:27.045Z,100318.09
2022-09-13T04:04:53.999Z,100312.38
2022-09-13T04:07:24.279Z,100311.72
2022-09-13T04:09:51.191Z,100317.88
2022-09-13T04:12:19.280Z,100317.53
2022-09-13T04:14:46.521Z,100317.06
2022-09-13T04:17:14.115Z,100309.28
2022-09-13T04:19:41.700Z,100310.31
2022-09-13T04:22:08.602Z,100316.94
2022-09-13T04:24:36.530Z,100312.94
2022-09-13T04:27:05.229Z,100318.53
2022-09-13T04:29:33.257Z,100313.34
2022-09-13T04:32:00.704Z,100316.22
2022-09-13T04:34:28.206Z,100318.94
2022-09-13T04:36:55.254Z,100324.91
2022-09-13T04:39:23.980Z,100334.22
2022-09-13T04:41:52.547Z,100340.00
2022-09-13T04:44:20.678Z,100338.88
2022-09-13T04:46:49.266Z,100329.91
2022-09-13T04:49:18.004Z,100333.63
2022-09-13T04:51:45.172Z,100328.09
2022-09-13T04:54:15.673Z,100332.50
2022-09-13T04:56:44.467Z,100334.06
2022-09-13T04:59:12.301Z,100333.53
2022-09-13T05:01:39.875Z,100333.25
2022-09-13T05:04:08.876Z,100332.75
2022-09-13T05:06:36.304Z,100326.03
2022-09-13T05:09:03.765Z,100320.97
2022-09-13T05:11:30.699Z,100329.47
2022-09-13T05:14:00.522Z,100332.19
2022-09-13T05:16:30.990Z,100337.16
2022-09-13T05:18:58.491Z,100329.84
2022-09-13T05:21:28.062Z,100334.59
2022-09-13T05:23:56.467Z,100336.66
2022-09-13T05:26:26.430Z,100337.03
2022-09-13T05:28:53.760Z,100328.22
2022-09-13T05:31:32.054Z,100332.34
2022-09-13T05:34:17.759Z,100327.94
2022-09-13T05:36:44.872Z,100323.38
2022-09-13T05:39:36.538Z,100332.03
2022-09-13T05:42:09.181Z,100324.28
2022-09-13T05:44:35.949Z,100325.94
2022-09-13T05:47:02.700Z,100329.31
2022-09-13T05:49:29.612Z,100328.78
2022-09-13T05:51:56.355Z,100329.97
2022-09-13T05:54:23.116Z,100337.94
2022-09-13T05:56:52.658Z,100339.25
2022-09-13T05:59:19.416Z,100349.44
2022-09-13T06:01:46.444Z,100348.44
2022-09-13T06:04:13.264Z,100349.94
2022-09-13T06:06:40.217Z,100343.50
2022-09-13T06:09:08.803Z,100341.91
2022-09-13T06:11:35.531Z,100352.19
2022-09-13T06:14:02.469Z,100350.81
2022-09-13T06:16:29.277Z,100348.56
2022-09-13T06:18:56.206Z,100345.97
2022-09-13T06:21:28.303Z,100345.88
2022-09-13T06:23:55.919Z,100338.97
2022-09-13T06:26:26.743Z,100342.41
2022-09-13T06:28:56.486Z,100343.72
2022-09-13T06:31:25.871Z,100341.31
2022-09-13T06:34:03.176Z,100335.13
2022-09-13T06:36:31.302Z,100336.53
2022-09-13T06:39:00.730Z,100340.38
2022-09-13T06:41:28.254Z,100335.47
2022-09-13T06:43:58.876Z,100336.09
2022-09-13T06:46:30.413Z,100335.31
2022-09-13T06:49:05.219Z,100338.03
2022-09-13T06:51:34.079Z,100342.34
2022-09-13T06:54:01.466Z,100346.75
2022-09-13T06:56:37.860Z,100347.41
2022-09-13T06:59:07.867Z,100347.28
2022-09-13T07:01:41.632Z,100346.25
2022-09-13T07:04:14.150Z,100350.28
2022-09-13T07:06:48.037Z,100343.59
2022-09-13T07:09:18.991Z,100345.38
2022-09-13T07:11:47.613Z,100351.06
2022-09-13T07:14:18.398Z,100349.66
2022-09-13T07:16:46.874Z,100359.94
2022-09-13T07:19:20.579Z,100343.38
2022-09-13T07:21:49.004Z,100342.03
2022-09-13T07:24:17.694Z,100344.09
2022-09-13T07:26:45.518Z,100339.97
2022-09-13T07:29:19.509Z,100349.66
2022-09-13T07:31:49.256Z,100347.59
2022-09-13T07:34:25.692Z,100345.19
2022-09-13T07:36:53.000Z,100352.44
2022-09-13T07:39:22.699Z,100348.13
2022-09-13T07:41:51.043Z,100352.28
2022-09-13T07:44:18.159Z,100350.72
2022-09-13T07:46:44.999Z,100352.06
2022-09-13T07:49:19.072Z,100338.31
2022-09-13T07:51:46.159Z,100338.56
2022-09-13T07:54:17.778Z,100334.19
2022-09-13T07:56:45.920Z,100324.19
2022-09-13T07:59:15.897Z,100329.28
2022-09-13T08:01:49.399Z,100329.34
2022-09-13T08:04:21.362Z,100337.97
2022-09-13T08:06:48.486Z,100340.88
2022-09-13T08:09:16.584Z,100342.38
2022-09-13T08:11:47.485Z,100334.78
2022-09-13T08:14:18.102Z,100342.78
2022-09-13T08:16:45.543Z,100333.94
2022-09-13T08:19:18.349Z,100340.63
2022-09-13T08:21:46.416Z,100336.84
2022-09-13T08:24:20.074Z,100337.44
2022-09-13T08:26:48.310Z,100330.50
2022-09-13T08:29:16.327Z,100336.31
2022-09-13T08:31:43.666Z,100336.31
2022-09-13T08:34:16.052Z,100331.06
2022-09-13T08:36:43.755Z,100339.66
2022-09-13T08:39:13.854Z,100327.50
2022-09-13T08:41:42.363Z,100324.75
2022-09-13T08:44:56.376Z,100322.88
2022-09-13T08:47:42.079Z,100328.38
2022-09-13T08:50:21.812Z,100335.09
2022-09-13T08:53:28.459Z,100340.75
2022-09-13T08:56:12.976Z,100343.75
2022-09-13T08:59:01.170Z,100339.78
2022-09-13T09:01:47.121Z,100347.09
2022-09-13T09:04:39.229Z,100337.25
2022-09-13T09:07:15.756Z,100340.38
2022-09-13T09:09:52.845Z,100339.78
2022-09-13T09:12:41.767Z,100337.22
2022-09-13T09:15:45.562Z,100342.47
2022-09-13T09:18:12.399Z,100339.06
2022-09-13T09:20:49.887Z,100337.81
2022-09-13T09:23:41.015Z,100343.91
2022-09-13T09:26:17.356Z,100328.28
2022-09-13T09:28:51.140Z,100320.25
2022-09-13T09:31:35.585Z,100324.44
2022-09-13T09:34:43.152Z,100333.84
2022-09-13T09:37:26.102Z,100324.31
2022-09-13T09:39:56.279Z,100308.25
2022-09-13T09:42:28.431Z,100311.09
2022-09-13T09:45:06.015Z,100313.78
2022-09-13T09:47:45.775Z,100309.72
2022-09-13T09:50:22.793Z,100307.38
2022-09-13T09:53:00.171Z,100305.84
2022-09-13T09:55:33.735Z,100292.50
2022-09-13T09:58:06.293Z,100297.25
2022-09-13T10:00:37.916Z,100289.94
2022-09-13T10:03:17.726Z,100292.09
2022-09-13T10:05:44.863Z,100294.75
2022-09-13T10:08:40.190Z,100290.88
2022-09-13T10:11:08.211Z,100288.59
2022-09-13T10:13:38.452Z,100275.44
2022-09-13T10:16:26.649Z,100275.22
2022-09-13T10:18:53.719Z,100262.31
2022-09-13T10:21:26.295Z,100278.22
2022-09-13T10:24:17.907Z,100267.41
2022-09-13T10:26:45.856Z,100277.31
2022-09-13T10:29:17.843Z,100268.63
2022-09-13T10:31:47.932Z,100267.44
2022-09-13T10:34:22.692Z,100255.88
2022-09-13T10:37:06.889Z,100255.94
2022-09-13T10:39:37.047Z,100256.63
2022-09-13T10:42:08.840Z,100257.78
2022-09-13T10:44:57.040Z,100261.06
2022-09-13T10:47:34.731Z,100261.94
2022-09-13T10:50:26.848Z,100268.50
2022-09-13T10:52:56.644Z,100260.72
2022-09-13T10:55:24.719Z,100255.38
2022-09-13T10:57:57.688Z,100249.78
2022-09-13T11:00:36.773Z,100245.28
2022-09-13T11:03:45.820Z,100247.00
2022-09-13T11:06:36.816Z,100245.22
2022-09-13T11:09:20.271Z,100248.59
2022-09-13T11:12:20.608Z,100247.41
2022-09-13T11:15:20.813Z,100238.72
2022-09-13T11:18:16.764Z,100236.09
2022-09-13T11:21:11.132Z,100238.34
2022-09-13T11:24:11.671Z,100238.94
2022-09-13T11:26:47.459Z,100240.84
2022-09-13T11:29:41.176Z,100240.25
2022-09-13T11:32:07.959Z,100242.19
2022-09-13T11:34:55.143Z,100232.84
2022-09-13T11:37:37.115Z,100222.81
2022-09-13T11:40:23.310Z,100226.41
2022-09-13T11:43:00.259Z,100223.34
2022-09-13T11:45:40.475Z,100224.53
2022-09-13T11:48:32.053Z,100224.53
2022-09-13T11:51:30.146Z,100224.16
2022-09-13T11:54:20.531Z,100216.09
2022-09-13T11:56:54.573Z,100221.94
2022-09-13T11:59:38.864Z,100219.91
2022-09-13T12:02:24.677Z,100218.72
2022-09-13T12:08:18.780Z,100216.56
2022-09-13T12:11:04.240Z,100216.94
2022-09-13T12:13:35.687Z,100229.72
2022-09-13T12:16:10.145Z,100224.56
2022-09-13T12:18:44.831Z,100223.94
2022-09-13T12:21:24.188Z,100212.34
2022-09-13T12:24:23.939Z,100212.44
2022-09-13T12:27:01.109Z,100221.97
2022-09-13T12:29:49.286Z,100221.47
2022-09-13T12:32:18.024Z,100219.66
2022-09-13T12:35:09.518Z,100220.41
2022-09-13T12:37:51.392Z,100227.44
2022-09-13T12:40:49.406Z,100225.66
2022-09-13T12:43:52.300Z,100216.00
2022-09-13T12:46:55.919Z,100221.50
2022-09-13T12:49:43.852Z,100221.34
2022-09-13T12:52:44.461Z,100217.53
2022-09-13T12:55:52.143Z,100219.34
2022-09-13T12:58:46.326Z,100218.25
2022-09-13T13:01:20.452Z,100213.94
2022-09-13T13:03:56.298Z,100217.94
2022-09-13T13:06:39.714Z,100217.34
2022-09-13T13:09:33.223Z,100218.94
2022-09-13T13:12:00.844Z,100211.13
2022-09-13T13:14:39.788Z,100218.72
2022-09-13T13:17:51.199Z,100212.22
2022-09-13T13:20:51.996Z,100205.22
2022-09-13T13:23:35.589Z,100211.91
2022-09-13T13:26:57.698Z,100203.72
2022-09-13T13:29:32.383Z,100201.44
2022-09-13T13:32:02.695Z,100212.44
2022-09-13T13:34:44.820Z,100210.06
2022-09-13T13:37:11.517Z,100209.94
2022-09-13T13:39:48.572Z,100206.47
2022-09-13T13:42:38.385Z,100204.56
2022-09-13T13:45:07.736Z,100196.56
2022-09-13T13:47:34.607Z,100198.22
2022-09-13T13:50:17.367Z,100201.78
2022-09-13T13:52:47.212Z,100206.69
2022-09-13T13:55:39.320Z,100194.41
2022-09-13T13:58:30.852Z,100186.50
2022-09-13T14:01:02.252Z,100193.66
2022-09-13T14:03:43.106Z,100190.81
2022-09-13T14:06:25.152Z,100184.56
2022-09-13T14:09:13.154Z,100178.47
2022-09-13T14:11:51.945Z,100182.38
2022-09-13T14:14:43.632Z,100178.53
2022-09-13T14:18:00.001Z,100169.53
2022-09-13T14:20:26.889Z,100166.31
2022-09-13T14:23:21.240Z,100172.41
2022-09-13T14:25:56.028Z,100166.50
2022-09-13T14:28:24.094Z,100169.06
2022-09-13T14:30:58.531Z,100163.88
2022-09-13T14:33:36.412Z,100159.59
2022-09-13T14:36:18.131Z,100157.31
2022-09-13T14:39:00.152Z,100151.56
2022-09-13T14:41:37.730Z,100154.84
2022-09-13T14:44:29.052Z,100158.22
2022-09-13T14:47:29.248Z,100158.81
2022-09-13T14:50:07.226Z,100154.38
2022-09-13T14:52:49.438Z,100153.53
2022-09-13T14:55:22.406Z,100166.91
2022-09-13T14:57:54.891Z,100155.88
2022-09-13T15:00:24.519Z,100153.91
2022-09-13T15:03:10.848Z,100152.56
2022-09-13T15:05:37.870Z,100151.72
2022-09-13T15:08:33.323Z,100149.31
2022-09-13T15:11:02.708Z,100149.44
2022-09-13T15:13:29.758Z,100139.94
2022-09-13T15:15:56.544Z,100136.09
2022-09-13T15:18:36.270Z,100134.88
2022-09-13T15:21:16.023Z,100143.00
2022-09-13T15:23:50.141Z,100141.19
2022-09-13T15:26:23.927Z,100136.50
2022-09-13T15:28:54.464Z,100143.50
2022-09-13T15:31:27.970Z,100136.00
2022-09-13T15:34:20.566Z,100138.16
2022-09-13T15:37:08.936Z,100136.97
2022-09-13T15:39:53.816Z,100132.22
2022-09-13T15:42:20.762Z,100129.22
2022-09-13T15:44:47.639Z,100128.06
2022-09-13T15:47:18.922Z,100124.72
2022-09-13T15:49:52.443Z,100123.31
2022-09-13T15:52:20.687Z,100118.13
2022-09-13T15:54:50.542Z,100115.28
2022-09-13T15:57:23.688Z,100116.44
2022-09-13T15:59:51.024Z,100116.97
2022-09-13T16:02:19.662Z,100117.31
2022-09-13T16:04:47.114Z,100112.13
2022-09-13T16:07:14.768Z,100111.63
2022-09-13T16:09:41.618Z,100108.84
2022-09-13T16:12:09.151Z,100105.28
2022-09-13T16:14:35.941Z,100105.78
2022-09-13T16:17:24.737Z,100099.28
2022-09-13T16:19:53.100Z,100096.94
2022-09-13T16:22:20.507Z,100106.34
2022-09-13T16:24:47.922Z,100105.63
2022-09-13T16:27:17.361Z,100102.28
2022-09-13T16:29:44.355Z,100097.50
2022-09-13T16:32:11.624Z,100105.72
2022-09-13T16:34:39.617Z,100101.63
2022-09-13T16:37:06.474Z,100099.63
2022-09-13T16:39:33.249Z,100093.28
2022-09-13T16:42:00.043Z,100089.13
2022-09-13T16:44:26.786Z,100091.28
2022-09-13T16:46:53.623Z,100085.19
2022-09-13T16:49:20.795Z,100090.84
2022-09-13T16:51:47.567Z,100093.13
2022-09-13T16:54:14.348Z,100093.69
2022-09-13T16:56:41.542Z,100087.38
2022-09-13T16:59:08.438Z,100081.59
2022-09-13T17:01:36.015Z,100083.75
2022-09-13T17:04:03.655Z,100086.50
2022-09-13T17:06:30.485Z,100085.28
2022-09-13T17:09:01.768Z,100084.63
2022-09-13T17:11:33.414Z,100083.47
2022-09-13T17:14:02.301Z,100078.94
2022-09-13T17:16:34.093Z,100083.75
2022-09-13T17:19:04.761Z,100084.75
2022-09-13T17:21:33.907Z,100086.25
2022-09-13T17:24:02.344Z,100088.31
2022-09-13T17:26:29.243Z,100090.13
2022-09-13T17:28:56.155Z,100090.25
2022-09-13T17:31:23.000Z,100084.66
2022-09-13T17:33:50.272Z,100087.31
2022-09-13T17:36:17.403Z,100091.19
2022-09-13T17:38:44.467Z,100085.94
2022-09-13T17:41:18.271Z,100088.22
2022-09-13T17:43:47.003Z,100081.13
2022-09-13T17:46:23.798Z,100080.31
2022-09-13T17:48:53.525Z,100081.75
2022-09-13T17:51:23.685Z,100083.78
2022-09-13T17:53:54.489Z,100084.13
2022-09-13T17:56:34.306Z,100076.28
2022-09-13T17:59:17.588Z,100082.63
2022-09-13T18:01:48.608Z,100088.94
2022-09-13T18:04:19.041Z,100087.63
2022-09-13T18:06:54.651Z,100085.47
2022-09-13T18:09:22.007Z,100081.78
2022-09-13T18:11:49.765Z,100086.75
2022-09-13T18:14:18.645Z,100086.25
2022-09-13T18:16:46.500Z,100087.44
2022-09-13T18:19:13.795Z,100088.59
2022-09-13T18:21:41.358Z,100092.97
2022-09-13T18:24:08.471Z,100092.00
2022-09-13T18:26:36.471Z,100093.41
2022-09-13T18:29:07.405Z,100097.09
2022-09-13T18:31:36.346Z,100096.94
2022-09-13T18:34:13.055Z,100102.13
2022-09-13T18:36:41.044Z,100096.13
2022-09-13T18:39:15.264Z,100092.66
2022-09-13T18:41:42.071Z,100093.78
2022-09-13T18:44:12.533Z,100100.44
2022-09-13T18:46:40.122Z,100099.44
2022-09-13T18:49:07.978Z,100093.19
2022-09-13T18:51:43.843Z,100103.38
2022-09-13T18:54:17.846Z,100099.22
2022-09-13T18:56:46.511Z,100111.09
2022-09-13T18:59:14.003Z,100111.19
2022-09-13T19:01:43.330Z,100118.16
2022-09-13T19:04:19.622Z,100110.06
2022-09-13T19:06:50.508Z,100111.38
2022-09-13T19:09:20.095Z,100110.75
2022-09-13T19:11:49.744Z,100113.16
2022-09-13T19:14:27.286Z,100112.78
2022-09-13T19:17:01.170Z,100113.88
2022-09-13T19:19:29.123Z,100112.03
2022-09-13T19:21:55.881Z,100119.22
2022-09-13T19:24:22.907Z,100114.22
2022-09-13T19:26:51.764Z,100109.00
2022-09-13T19:29:23.452Z,100109.91
2022-09-13T19:31:52.869Z,100114.38
2022-09-13T19:34:22.188Z,100112.94
2022-09-13T19:36:53.666Z,100116.34
2022-09-13T19:39:20.481Z,100120.78
2022-09-13T19:41:47.445Z,100120.59
2022-09-13T19:44:14.874Z,100124.81
2022-09-13T19:46:42.988Z,100120.84
2022-09-13T19:49:14.719Z,100122.31
2022-09-13T19:51:46.460Z,100120.03
2022-09-13T19:54:17.188Z,100120.91
2022-09-13T19:56:44.664Z,100124.50
2022-09-13T19:59:16.026Z,100118.63
2022-09-13T20:01:46.347Z,100124.13
2022-09-13T20:04:17.516Z,100123.31
2022-09-13T20:06:52.019Z,100126.47
2022-09-13T20:09:20.908Z,100123.97
2022-09-13T20:11:49.026Z,100129.44
2022-09-13T20:14:19.016Z,100135.31
2022-09-13T20:16:46.643Z,100129.06
2022-09-13T20:22:09.953Z,100129.28
2022-09-13T20:24:37.243Z,100129.94
2022-09-13T20:27:04.760Z,100131.22
2022-09-13T20:29:31.940Z,100122.81
2022-09-13T20:31:59.807Z,100122.41
2022-09-13T20:34:27.445Z,100132.06
2022-09-13T20:36:54.186Z,100127.88
2022-09-13T20:39:21.018Z,100128.31
2022-09-13T20:41:49.458Z,100130.41
2022-09-13T20:44:16.513Z,100129.78
2022-09-13T20:46:43.721Z,100134.19
2022-09-13T20:49:11.921Z,100123.72
2022-09-13T20:51:38.993Z,100121.97
2022-09-13T20:54:06.569Z,100125.38
2022-09-13T20:56:34.658Z,100122.41
2022-09-13T20:59:02.246Z,100123.25
2022-09-13T21:01:31.613Z,100121.97
2022-09-13T21:03:59.741Z,100121.16
2022-09-13T21:06:30.350Z,100132.06
2022-09-13T21:09:00.299Z,100136.25
2022-09-13T21:11:35.136Z,100126.38
2022-09-13T21:14:06.105Z,100125.13
2022-09-13T21:16:36.351Z,100119.69
2022-09-13T21:19:04.124Z,100116.97
2022-09-13T21:21:38.535Z,100114.03
2022-09-13T21:24:09.949Z,100114.03
2022-09-13T21:26:42.269Z,100108.16
2022-09-13T21:29:10.704Z,100106.47
2022-09-13T21:31:38.195Z,100103.97
2022-09-13T21:34:14.875Z,100101.88
2022-09-13T21:36:42.286Z,100098.50
2022-09-13T21:39:09.599Z,100095.81
2022-09-13T21:41:36.903Z,100095.81
2022-09-13T21:44:04.175Z,100093.94
2022-09-13T21:46:35.251Z,100093.28
2022-09-13T21:49:08.255Z,100095.59
2022-09-13T21:51:47.375Z,100092.25
2022-09-13T21:54:18.171Z,100087.63
2022-09-13T21:56:51.548Z,100092.84
2022-09-13T21:59:20.888Z,100090.97
2022-09-13T22:01:51.538Z,100088.66
2022-09-13T22:04:22.499Z,100089.31
2022-09-13T22:06:54.486Z,100087.19
2022-09-13T22:09:24.213Z,100079.22
2022-09-13T22:11:50.984Z,100083.41
2022-09-13T22:14:22.061Z,100078.41
2022-09-13T22:16:49.920Z,100082.78
2022-09-13T22:19:24.338Z,100081.94
2022-09-13T22:22:01.478Z,100080.88
2022-09-13T22:24:32.430Z,100072.94
2022-09-13T22:26:59.374Z,100073.97
2022-09-13T22:29:26.499Z,100064.94
2022-09-13T22:31:53.648Z,100070.56
2022-09-13T22:34:24.203Z,100058.63
2022-09-13T22:36:51.160Z,100067.03
2022-09-13T22:39:18.368Z,100065.75
2022-09-13T22:41:45.661Z,100072.00
2022-09-13T22:44:15.892Z,100063.81
2022-09-13T22:46:46.824Z,100072.38
2022-09-13T22:49:19.946Z,100068.59
2022-09-13T22:51:48.255Z,100061.69
2022-09-13T22:54:17.369Z,100067.31
2022-09-13T22:56:44.639Z,100066.88
2022-09-13T22:59:15.440Z,100066.66
2022-09-13T23:01:42.876Z,100063.94
2022-09-13T23:04:10.197Z,100064.75
2022-09-13T23:06:37.397Z,100072.66
2022-09-13T23:09:08.284Z,100065.13
2022-09-13T23:11:40.121Z,100068.66
2022-09-13T23:14:11.233Z,100063.44
2022-09-13T23:16:49.226Z,100063.19
2022-09-13T23:19:18.125Z,100068.59
2022-09-13T23:21:45.274Z,100067.09
2022-09-13T23:24:16.480Z,100067.91
2022-09-13T23:26:44.989Z,100074.81
2022-09-13T23:29:15.785Z,100070.13
2022-09-13T23:31:43.570Z,100078.72
2022-09-13T23:34:12.847Z,100069.66
2022-09-13T23:36:42.492Z,100066.31
2022-09-13T23:39:16.788Z,100061.91
2022-09-13T23:41:46.487Z,100070.06
2022-09-13T23:44:13.700Z,100064.84
2022-09-13T23:46:41.432Z,100067.75
2022-09-13T23:49:08.192Z,100068.78
2022-09-13T23:51:35.099Z,100074.22
2022-09-13T23:54:03.116Z,100069.19
2022-09-13T23:56:31.722Z,100068.16
2022-09-13T23:59:00.942Z,100065.16
